Time;durP1;ratioP1;P1;durP2;ratioP2;P2;SDS_P1;SDS_P2;PMS_P1;PMS_P2;Temp;Humidity;BMP_temperature;BMP_pressure;BME280_temperature;BME280_humidity;BME280_pressure;Samples;Min_cycle;Max_cycle;Signal;HPM_P1;HPM_P2
2019/04/10 00:01:25;;;;;;;4.2;3.8;;;;;;;22.79;40.54395;995.2475;;;;
2019/04/10 00:02:55;;;;;;;4.3;3.9;;;;;;;22.77;40.56641;995.3095;;;;
2019/04/10 00:05:22;;;;;;;4.7;4.2;;;;;;;22.78;40.55469;995.3173;;;;
2019/04/10 00:07:56;;;;;;;4.6;4.2;;;;;;;22.78;40.56641;995.3683;;;;
2019/04/10 00:10:27;;;;;;;5.2;4;;;;;;;22.76;40.56543;995.2894;;;;
2019/04/10 00:13:00;;;;;;;4.6;4.2;;;;;;;22.76;40.56543;995.3345;;;;
2019/04/10 00:15:31;;;;;;;4.4;4;;;;;;;22.76;40.56543;995.3031;;;;
2019/04/10 00:18:08;;;;;;;5.3;4.2;;;;;;;22.75;40.56445;995.2775;;;;
2019/04/10 00:20:46;;;;;;;4.5;4.1;;;;;;;22.75;40.56445;995.2775;;;;
2019/04/10 00:23:12;;;;;;;4.5;4.1;;;;;;;22.76;40.55371;995.3031;;;;
2019/04/10 00:25:37;;;;;;;5;4.2;;;;;;;22.76;40.54199;995.2935;;;;
2019/04/10 00:28:10;;;;;;;4.8;4.4;;;;;;;22.75;40.56348;995.3008;;;;
2019/04/10 00:30:44;;;;;;;5;4.5;;;;;;;22.75;40.5752;995.279;;;;
2019/04/10 00:33:16;;;;;;;4.5;4.1;;;;;;;22.76;40.55371;995.2211;;;;
2019/04/10 00:35:49;;;;;;;5;4.5;;;;;;;22.76;40.54199;995.18;;;;
2019/04/10 00:38:16;;;;;;;4.7;4.3;;;;;;;22.76;40.53027;995.1841;;;;
2019/04/10 00:40:42;;;;;;;4.9;4.4;;;;;;;22.78;40.48438;995.2023;;;;
2019/04/10 00:43:11;;;;;;;4.7;4.2;;;;;;;22.78;40.47168;995.1905;;;;
2019/04/10 00:45:47;;;;;;;4.9;4.5;;;;;;;22.76;40.49414;995.2388;;;;
2019/04/10 00:48:15;;;;;;;5.2;4.7;;;;;;;22.75;40.5166;995.3008;;;;
2019/04/10 00:50:49;;;;;;;5.2;4.7;;;;;;;22.75;40.50488;995.283;;;;
2019/04/10 00:53:23;;;;;;;5.2;4.7;;;;;;;22.75;40.48145;995.1873;;;;
2019/04/10 00:55:57;;;;;;;5.6;5.1;;;;;;;22.76;40.43457;995.217;;;;
2019/04/10 00:58:31;;;;;;;5.6;5;;;;;;;22.74;40.46875;995.1166;;;;
2019/04/10 01:01:01;;;;;;;5.7;5.1;;;;;;;22.75;40.41113;995.0997;;;;
2019/04/10 01:03:44;;;;;;;6.1;5.5;;;;;;;22.74;40.38672;995.1111;;;;
2019/04/10 01:06:08;;;;;;;6;5.5;;;;;;;22.74;40.35156;995.0974;;;;
2019/04/10 01:08:33;;;;;;;6.7;6.1;;;;;;;22.73;40.32617;995.0733;;;;
2019/04/10 01:11:01;;;;;;;7.2;6.5;;;;;;;22.72;40.3252;995.1024;;;;
2019/04/10 01:13:29;;;;;;;7.5;6.8;;;;;;;22.73;40.24316;995.0596;;;;
2019/04/10 01:15:57;;;;;;;7.9;7.1;;;;;;;22.72;40.25391;995.0847;;;;
2019/04/10 01:18:32;;;;;;;8.6;7.8;;;;;;;22.72;40.19531;995.1667;;;;
2019/04/10 01:21:05;;;;;;;8.7;7.9;;;;;;;22.71;40.17188;995.1586;;;;
2019/04/10 01:23:38;;;;;;;8.7;7.9;;;;;;;22.71;40.1123;995.1175;;;;
2019/04/10 01:26:10;;;;;;;9.8;8.8;;;;;;;22.73;39.97168;995.0596;;;;
2019/04/10 01:28:42;;;;;;;10.4;9.4;;;;;;;22.71;39.98242;995.0861;;;;
2019/04/10 01:31:14;;;;;;;11.2;10.1;;;;;;;22.71;39.92285;995.0687;;;;
2019/04/10 01:33:49;;;;;;;10.7;9.7;;;;;;;22.69;39.87402;995.0856;;;;
2019/04/10 01:36:24;;;;;;;11.6;10.5;;;;;;;22.69;39.83887;995.0815;;;;
2019/04/10 01:38:58;;;;;;;12.1;10.9;;;;;;;22.68;39.80176;995.0478;;;;
2019/04/10 01:41:29;;;;;;;12.6;11.3;;;;;;;22.7;39.66211;995.035;;;;
2019/04/10 01:44:03;;;;;;;13.1;11.7;;;;;;;22.71;39.58105;995.014;;;;
2019/04/10 01:46:33;;;;;;;13.8;12.5;;;;;;;22.69;39.56738;995.0268;;;;
2019/04/10 01:49:03;;;;;;;13.6;12.3;;;;;;;22.69;39.49707;995.009;;;;
2019/04/10 01:51:27;;;;;;;13.8;12.4;;;;;;;22.71;39.35742;995.0081;;;;
2019/04/10 01:53:58;;;;;;;13.8;12.4;;;;;;;22.71;39.32129;995.0646;;;;
2019/04/10 01:56:26;;;;;;;15.2;13.7;;;;;;;22.72;39.19238;995.0574;;;;
2019/04/10 01:58:54;;;;;;;14.7;13.3;;;;;;;22.71;39.10938;995.0628;;;;
2019/04/10 02:01:36;;;;;;;15.2;13.7;;;;;;;22.71;39.08496;995.096;;;;
2019/04/10 02:04:04;;;;;;;15.8;14.3;;;;;;;22.7;39.02441;995.0391;;;;
2019/04/10 02:06:37;;;;;;;16.8;15.2;;;;;;;22.68;39.01172;995.1106;;;;
2019/04/10 02:09:05;;;;;;;16.4;14.8;;;;;;;22.68;39.01172;995.0887;;;;
2019/04/10 02:11:34;;;;;;;17.1;15.4;;;;;;;22.68;38.91699;995.0987;;;;
2019/04/10 02:13:59;;;;;;;16.9;15.3;;;;;;;22.68;38.84668;995.0969;;;;
2019/04/10 02:16:37;;;;;;;16.9;15.3;;;;;;;22.68;38.81055;995.0987;;;;
2019/04/10 02:19:06;;;;;;;17.3;15.6;;;;;;;22.68;38.75195;995.1261;;;;
2019/04/10 02:21:34;;;;;;;18.2;16.4;;;;;;;22.67;38.75195;995.1002;;;;
2019/04/10 02:24:07;;;;;;;17.9;16.2;;;;;;;22.66;38.71484;995.0254;;;;
2019/04/10 02:26:36;;;;;;;18.3;16.5;;;;;;;22.65;38.70215;995.0586;;;;
2019/04/10 02:28:59;;;;;;;18.4;16.5;;;;;;;22.65;38.63086;995.0313;;;;
2019/04/10 02:31:31;;;;;;;18;16.3;;;;;;;22.65;38.53711;994.9355;;;;
2019/04/10 02:33:58;;;;;;;18.8;17;;;;;;;22.66;38.51367;994.9844;;;;
2019/04/10 02:36:30;;;;;;;19.2;17.2;;;;;;;22.66;38.47949;994.9789;;;;
2019/04/10 02:38:58;;;;;;;18.3;16.6;;;;;;;22.65;38.47754;994.9587;;;;
2019/04/10 02:41:26;;;;;;;19.1;17.2;;;;;;;22.64;38.43066;994.9506;;;;
2019/04/10 02:44:02;;;;;;;18.9;17.1;;;;;;;22.65;38.38477;994.9396;;;;
2019/04/10 02:46:28;;;;;;;19.1;17.2;;;;;;;22.66;38.31348;994.9474;;;;
2019/04/10 02:48:59;;;;;;;19.6;17.7;;;;;;;22.67;38.26758;994.9578;;;;
2019/04/10 02:51:35;;;;;;;19.2;17.4;;;;;;;22.66;38.25488;994.9297;;;;
2019/04/10 02:54:02;;;;;;;19.8;17.9;;;;;;;22.64;38.26465;995.007;;;;
2019/04/10 02:56:30;;;;;;;19.4;17.6;;;;;;;22.64;38.19434;994.9879;;;;
2019/04/10 02:59:04;;;;;;;20.8;18.7;;;;;;;22.66;38.07715;994.998;;;;
2019/04/10 03:01:42;;;;;;;20.6;18.6;;;;;;;22.65;38.06445;994.9684;;;;
2019/04/10 03:04:16;;;;;;;20.6;18.5;;;;;;;22.63;38.0752;994.9992;;;;
2019/04/10 03:06:43;;;;;;;20.4;18.4;;;;;;;22.63;38.05273;995.0167;;;;
2019/04/10 03:09:14;;;;;;;21;18.9;;;;;;;22.62;38.0625;995.0103;;;;
2019/04/10 03:11:44;;;;;;;20.2;18.2;;;;;;;22.6;38.03711;994.9824;;;;
2019/04/10 03:14:11;;;;;;;20.9;18.8;;;;;;;22.6;38.02539;995.0389;;;;
2019/04/10 03:16:45;;;;;;;21.3;19.4;;;;;;;22.61;37.95605;995.0413;;;;
2019/04/10 03:19:14;;;;;;;21.1;19.1;;;;;;;22.62;37.89746;995.0007;;;;
2019/04/10 03:21:48;;;;;;;20.4;18.5;;;;;;;22.61;37.94434;994.9592;;;;
2019/04/10 03:24:21;;;;;;;20.5;18.6;;;;;;;22.59;37.94238;995.0622;;;;
2019/04/10 03:26:53;;;;;;;21.1;19;;;;;;;22.61;37.87402;995.0258;;;;
2019/04/10 03:29:23;;;;;;;21.3;19.3;;;;;;;22.61;37.89648;995.0549;;;;
2019/04/10 03:31:51;;;;;;;21.5;19.4;;;;;;;22.59;37.88379;995.0212;;;;
2019/04/10 03:34:21;;;;;;;21.3;19.1;;;;;;;22.6;37.85938;995.0153;;;;
2019/04/10 03:36:51;;;;;;;22.1;19.8;;;;;;;22.59;37.84766;995.0622;;;;
2019/04/10 03:39:23;;;;;;;20.6;18.6;;;;;;;22.59;37.80078;995.0349;;;;
2019/04/10 03:41:52;;;;;;;21.6;19.5;;;;;;;22.59;37.77734;995.0267;;;;
2019/04/10 03:44:16;;;;;;;21.5;19.3;;;;;;;22.58;37.78711;995.0066;;;;
2019/04/10 03:46:48;;;;;;;21.2;19.1;;;;;;;22.59;37.76563;995.0403;;;;
2019/04/10 03:49:21;;;;;;;21.9;19.8;;;;;;;22.59;37.72949;995.0308;;;;
2019/04/10 03:51:54;;;;;;;21.5;19.5;;;;;;;22.6;37.71777;995.0798;;;;
2019/04/10 03:54:31;;;;;;;21.9;19.7;;;;;;;22.6;37.70703;995.0467;;;;
2019/04/10 03:57:08;;;;;;;22.7;20.4;;;;;;;22.6;37.68359;995.1739;;;;
2019/04/10 03:59:36;;;;;;;21.5;19.5;;;;;;;22.59;37.68262;995.1264;;;;
2019/04/10 04:02:33;;;;;;;21.5;19.5;;;;;;;22.58;37.70605;995.1556;;;;
2019/04/10 04:05:05;;;;;;;22;19.9;;;;;;;22.58;37.68164;995.1105;;;;
2019/04/10 04:07:36;;;;;;;22.2;20.1;;;;;;;22.58;37.68164;995.2021;;;;
2019/04/10 04:10:08;;;;;;;22.1;20;;;;;;;22.58;37.66992;995.1652;;;;
2019/04/10 04:12:34;;;;;;;21.1;19.1;;;;;;;22.59;37.63574;995.1948;;;;
2019/04/10 04:15:07;;;;;;;22.5;20.3;;;;;;;22.58;37.65723;995.2431;;;;
2019/04/10 04:17:39;;;;;;;22.2;20.1;;;;;;;22.58;37.66992;995.2253;;;;
2019/04/10 04:20:05;;;;;;;21.5;19.5;;;;;;;22.57;37.65723;995.2626;;;;
2019/04/10 04:22:31;;;;;;;22.4;20.2;;;;;;;22.57;37.65723;995.2722;;;;
2019/04/10 04:24:56;;;;;;;22.5;20.4;;;;;;;22.57;37.64551;995.3228;;;;
2019/04/10 04:27:29;;;;;;;22;19.9;;;;;;;22.56;37.65723;995.397;;;;
2019/04/10 04:30:01;;;;;;;21.9;19.8;;;;;;;22.56;37.65723;995.3109;;;;
2019/04/10 04:32:31;;;;;;;21.2;19.2;;;;;;;22.56;37.65625;995.2658;;;;
2019/04/10 04:35:02;;;;;;;21.5;19.5;;;;;;;22.57;37.63379;995.2914;;;;
2019/04/10 04:37:35;;;;;;;21.5;19.3;;;;;;;22.57;37.60938;995.2504;;;;
2019/04/10 04:39:59;;;;;;;21.8;19.8;;;;;;;22.58;37.61035;995.2704;;;;
2019/04/10 04:42:29;;;;;;;21.7;19.7;;;;;;;22.57;37.63379;995.3187;;;;
2019/04/10 04:45:02;;;;;;;21.1;19.1;;;;;;;22.56;37.64453;995.2891;;;;
2019/04/10 04:47:34;;;;;;;20.9;18.9;;;;;;;22.56;37.64453;995.3478;;;;
2019/04/10 04:50:10;;;;;;;21.3;19.3;;;;;;;22.55;37.65625;995.3123;;;;
2019/04/10 04:52:38;;;;;;;21.8;19.7;;;;;;;22.55;37.67871;995.4043;;;;
2019/04/10 04:55:06;;;;;;;21.8;19.7;;;;;;;22.55;37.66797;995.4355;;;;
2019/04/10 04:57:40;;;;;;;21.2;19.2;;;;;;;22.55;37.67871;995.4316;;;;
2019/04/10 05:00:15;;;;;;;21.3;19.3;;;;;;;22.56;37.69141;995.4805;;;;
2019/04/10 05:02:46;;;;;;;22.2;20;;;;;;;22.56;37.70313;995.4436;;;;
2019/04/10 05:05:19;;;;;;;20.9;18.9;;;;;;;22.56;37.7041;995.4517;;;;
2019/04/10 05:07:45;;;;;;;22.1;19.9;;;;;;;22.57;37.69238;995.491;;;;
2019/04/10 05:10:10;;;;;;;22.6;20.4;;;;;;;22.58;37.69336;995.5399;;;;
2019/04/10 05:12:40;;;;;;;21.3;19.3;;;;;;;22.59;37.68262;995.5561;;;;
2019/04/10 05:15:10;;;;;;;22;19.9;;;;;;;22.58;37.69336;995.6205;;;;
2019/04/10 05:17:42;;;;;;;22.2;20;;;;;;;22.59;37.6709;995.6461;;;;
2019/04/10 05:20:11;;;;;;;22.8;20.5;;;;;;;22.6;37.6709;995.6442;;;;
2019/04/10 05:22:42;;;;;;;22.3;20.1;;;;;;;22.59;37.70605;995.6597;;;;
2019/04/10 05:25:13;;;;;;;22.6;20.5;;;;;;;22.59;37.72949;995.6283;;;;
2019/04/10 05:27:47;;;;;;;22.2;20.1;;;;;;;22.59;37.72949;995.6693;;;;
2019/04/10 05:30:18;;;;;;;22.1;20.1;;;;;;;22.59;37.75391;995.7184;;;;
2019/04/10 05:32:47;;;;;;;23;20.8;;;;;;;22.6;38.00195;995.7578;;;;
2019/04/10 05:35:19;;;;;;;22.2;20.1;;;;;;;22.59;37.9541;995.6638;;;;
2019/04/10 05:37:49;;;;;;;24.1;21.7;;;;;;;22.6;37.94238;995.74;;;;
2019/04/10 05:40:20;;;;;;;22.8;20.8;;;;;;;22.6;37.94336;995.7344;;;;
2019/04/10 05:42:50;;;;;;;23.4;21;;;;;;;22.6;37.95508;995.7988;;;;
2019/04/10 05:45:22;;;;;;;22.7;20.5;;;;;;;22.61;37.94434;995.7562;;;;
2019/04/10 05:47:53;;;;;;;22.2;20.1;;;;;;;22.62;37.94434;995.7272;;;;
2019/04/10 05:50:22;;;;;;;22.5;20.3;;;;;;;22.62;37.94434;995.7802;;;;
2019/04/10 05:52:55;;;;;;;22.8;20.6;;;;;;;22.63;37.94531;995.7787;;;;
2019/04/10 05:55:24;;;;;;;22.5;20.5;;;;;;;22.63;37.95801;995.8234;;;;
2019/04/10 05:57:50;;;;;;;21.9;19.9;;;;;;;22.64;37.94629;995.8549;;;;
2019/04/10 06:00:20;;;;;;;21.7;19.6;;;;;;;22.64;37.95898;995.8942;;;;
2019/04/10 06:02:51;;;;;;;22.2;20.1;;;;;;;22.64;37.96973;995.8686;;;;
2019/04/10 06:05:21;;;;;;;23.5;21;;;;;;;22.65;37.95898;995.9119;;;;
2019/04/10 06:07:51;;;;;;;22.2;20.1;;;;;;;22.64;37.99316;995.9096;;;;
2019/04/10 06:10:22;;;;;;;21.7;19.6;;;;;;;22.65;37.97168;995.8831;;;;
2019/04/10 06:12:55;;;;;;;22.2;20.2;;;;;;;22.65;37.9707;995.8928;;;;
2019/04/10 06:15:20;;;;;;;21.9;19.8;;;;;;;22.67;37.96094;995.8933;;;;
2019/04/10 06:17:52;;;;;;;20.9;19;;;;;;;22.67;37.94922;995.9029;;;;
2019/04/10 06:20:24;;;;;;;21.6;19.6;;;;;;;22.66;37.95996;995.9047;;;;
2019/04/10 06:22:54;;;;;;;21.6;19.6;;;;;;;22.67;37.94922;995.8878;;;;
2019/04/10 06:25:27;;;;;;;22.1;19.9;;;;;;;22.69;37.90332;995.861;;;;
2019/04/10 06:28:00;;;;;;;21.2;19.3;;;;;;;22.69;37.91504;995.8569;;;;
2019/04/10 06:30:32;;;;;;;22.1;20;;;;;;;22.68;37.92676;995.8764;;;;
2019/04/10 06:33:08;;;;;;;31.4;28.1;;;;;;;22.01;39.68262;995.8926;;;;
2019/04/10 06:35:33;;;;;;;32.7;29.5;;;;;;;21.18;41.98438;995.875;;;;
2019/04/10 06:38:04;;;;;;;36.4;32.5;;;;;;;21.15;41.71094;995.8948;;;;
2019/04/10 06:40:36;;;;;;;35.3;31.6;;;;;;;21.34;41.15332;995.8531;;;;
2019/04/10 06:43:09;;;;;;;36.5;32.5;;;;;;;21.38;41.10938;995.837;;;;
2019/04/10 06:45:44;;;;;;;37.7;33.6;;;;;;;21.06;41.83301;995.8539;;;;
2019/04/10 06:48:15;;;;;;;38.8;34.6;;;;;;;21.18;41.45508;995.8572;;;;
2019/04/10 06:50:46;;;;;;;37;33.2;;;;;;;21.25;41.40332;995.8683;;;;
2019/04/10 06:53:13;;;;;;;38.1;33.9;;;;;;;21.27;41.28809;995.8458;;;;
2019/04/10 06:55:47;;;;;;;36.5;32.6;;;;;;;21.26;41.63965;995.9294;;;;
2019/04/10 06:58:26;;;;;;;37.6;33.6;;;;;;;21.27;41.69922;995.9822;;;;
2019/04/10 07:00:54;;;;;;;37.6;33.6;;;;;;;21.32;41.89258;995.9358;;;;
2019/04/10 07:03:21;;;;;;;38.5;34.6;;;;;;;21.31;41.45703;995.9689;;;;
2019/04/10 07:05:44;;;;;;;37.1;33.2;;;;;;;21.29;41.63086;995.9559;;;;
2019/04/10 07:08:15;;;;;;;38.4;34.4;;;;;;;21.31;41.91504;995.9334;;;;
2019/04/10 07:10:47;;;;;;;39.2;35.1;;;;;;;21.39;41.49805;995.9077;;;;
2019/04/10 07:13:22;;;;;;;38.7;34.6;;;;;;;21.43;41.50195;995.9448;;;;
2019/04/10 07:15:47;;;;;;;38;34.1;;;;;;;21.11;41.86133;995.9808;;;;
2019/04/10 07:18:20;;;;;;;36.6;32.8;;;;;;;21.15;41.89941;995.9398;;;;
2019/04/10 07:20:52;;;;;;;37.1;33.2;;;;;;;21.24;41.55469;996.0352;;;;
2019/04/10 07:23:19;;;;;;;39;34;;;;;;;20.99;42.2373;996.0432;;;;
2019/04/10 07:25:50;;;;;;;38.4;34.3;;;;;;;21.11;41.58984;996.0313;;;;
2019/04/10 07:28:17;;;;;;;36.7;32.9;;;;;;;20.96;41.77637;996.0262;;;;
2019/04/10 07:30:49;;;;;;;37;33;;;;;;;20.88;41.66309;996.0695;;;;
2019/04/10 07:33:20;;;;;;;36.2;32.5;;;;;;;20.87;41.48633;996.0399;;;;
2019/04/10 07:35:49;;;;;;;35.1;31.4;;;;;;;20.75;41.58008;996.1345;;;;
2019/04/10 07:38:23;;;;;;;34.5;30.8;;;;;;;20.9;41.28809;996.1752;;;;
2019/04/10 07:40:48;;;;;;;32.9;29.3;;;;;;;21.1;40.94238;996.1226;;;;
2019/04/10 07:43:14;;;;;;;32.6;28.3;;;;;;;20.87;41.34473;996.1216;;;;
2019/04/10 07:45:46;;;;;;;30.8;27.7;;;;;;;21.21;40.95313;996.1044;;;;
2019/04/10 07:48:17;;;;;;;27;24.1;;;;;;;21.73;39.84668;996.1791;;;;
2019/04/10 07:50:50;;;;;;;26.3;23.5;;;;;;;22.05;39.49805;996.2302;;;;
2019/04/10 07:53:19;;;;;;;23.9;21.5;;;;;;;22.28;39.16504;996.2245;;;;
2019/04/10 07:55:51;;;;;;;23.5;21.1;;;;;;;22.5;39.20801;996.2869;;;;
2019/04/10 07:58:23;;;;;;;22.7;20.4;;;;;;;22.76;38.47559;996.2427;;;;
2019/04/10 08:00:53;;;;;;;23.4;21;;;;;;;22.94;38.10156;996.2167;;;;
2019/04/10 08:03:25;;;;;;;21.3;19.2;;;;;;;23.08;37.77148;996.2772;;;;
2019/04/10 08:05:56;;;;;;;21.6;19.4;;;;;;;23.19;37.69727;996.2936;;;;
2019/04/10 08:08:27;;;;;;;20.9;18.8;;;;;;;23.18;37.60352;996.2269;;;;
2019/04/10 08:10:53;;;;;;;20.5;18.3;;;;;;;23.18;37.5791;996.3242;;;;
2019/04/10 08:13:26;;;;;;;20.2;18.1;;;;;;;23.2;37.60449;996.3233;;;;
2019/04/10 08:16:00;;;;;;;19.7;17.7;;;;;;;23.27;37.47949;996.285;;;;
2019/04/10 08:18:25;;;;;;;19.2;17.2;;;;;;;23.26;37.44336;996.3059;;;;
2019/04/10 08:21:05;;;;;;;20;17.5;;;;;;;23.33;37.31934;996.3125;;;;
2019/04/10 08:23:36;;;;;;;18.9;17;;;;;;;23.31;37.09473;996.312;;;;
2019/04/10 08:26:07;;;;;;;18.8;16.9;;;;;;;23.31;37.45996;996.3764;;;;
2019/04/10 08:28:35;;;;;;;18.5;16.6;;;;;;;23.35;36.88281;996.3093;;;;
2019/04/10 08:31:04;;;;;;;18.6;16.8;;;;;;;23.4;37.05371;996.3016;;;;
2019/04/10 08:33:40;;;;;;;18.8;17;;;;;;;23.42;36.97266;996.3531;;;;
2019/04/10 08:36:10;;;;;;;19.2;17.2;;;;;;;23.37;37.15723;996.3631;;;;
2019/04/10 08:38:39;;;;;;;17.7;16;;;;;;;23.4;36.94727;996.4033;;;;
2019/04/10 08:41:12;;;;;;;17.7;15.8;;;;;;;23.45;36.71484;996.4681;;;;
2019/04/10 08:43:43;;;;;;;18.1;16.3;;;;;;;23.46;36.84668;996.3608;;;;
2019/04/10 08:46:14;;;;;;;18.2;16.4;;;;;;;23.55;36.74707;996.36;;;;
2019/04/10 08:48:45;;;;;;;18.5;16.7;;;;;;;23.62;36.375;996.3942;;;;
2019/04/10 08:51:16;;;;;;;17.8;16;;;;;;;23.63;36.41016;996.3828;;;;
2019/04/10 08:53:45;;;;;;;18;16.2;;;;;;;23.65;36.36426;996.3795;;;;
2019/04/10 08:56:16;;;;;;;17.8;15.9;;;;;;;23.7;36.15723;996.4028;;;;
2019/04/10 08:58:48;;;;;;;18;16.2;;;;;;;23.84;35.62305;996.4648;;;;
2019/04/10 09:01:17;;;;;;;16.5;14.8;;;;;;;23.8;35.70313;996.4553;;;;
2019/04/10 09:03:50;;;;;;;17.4;15.6;;;;;;;23.74;35.52051;996.4672;;;;
2019/04/10 09:06:16;;;;;;;17.3;15.5;;;;;;;23.73;35.40137;996.4938;;;;
2019/04/10 09:08:49;;;;;;;17.3;15.6;;;;;;;23.71;35.28125;996.4562;;;;
2019/04/10 09:11:19;;;;;;;16.5;14.7;;;;;;;23.71;35.26953;996.4521;;;;
2019/04/10 09:13:49;;;;;;;17.4;15.7;;;;;;;23.65;35.27637;996.4754;;;;
2019/04/10 09:16:21;;;;;;;16;14.5;;;;;;;23.74;35.1543;996.4261;;;;
2019/04/10 09:18:48;;;;;;;16.6;15;;;;;;;23.85;34.85547;996.4792;;;;
2019/04/10 09:21:13;;;;;;;16.6;14.9;;;;;;;23.91;34.52832;996.4385;;;;
2019/04/10 09:23:44;;;;;;;16.2;14.6;;;;;;;23.98;34.58203;996.5096;;;;
2019/04/10 09:26:16;;;;;;;16.9;14.6;;;;;;;24.06;34.42188;996.4515;;;;
2019/04/10 09:28:49;;;;;;;18;15;;;;;;;24.06;34.33984;996.4908;;;;
2019/04/10 09:31:27;;;;;;;15.3;13.8;;;;;;;24.04;34.62109;996.4921;;;;
2019/04/10 09:34:03;;;;;;;15.5;13.9;;;;;;;23.99;34.87793;996.4941;;;;
2019/04/10 09:36:37;;;;;;;16.1;14.5;;;;;;;23.98;34.5332;996.5522;;;;
2019/04/10 09:39:03;;;;;;;15.6;14.1;;;;;;;23.97;34.5918;996.507;;;;
2019/04/10 09:41:34;;;;;;;15.2;13.7;;;;;;;23.96;34.72266;996.5458;;;;
2019/04/10 09:44:09;;;;;;;16.5;14;;;;;;;23.95;34.67383;996.5669;;;;
2019/04/10 09:46:47;;;;;;;14.9;13.3;;;;;;;23.98;34.79492;996.5603;;;;
2019/04/10 09:49:21;;;;;;;14.4;13;;;;;;;24.06;34.68164;996.6337;;;;
2019/04/10 09:51:50;;;;;;;15;13.4;;;;;;;24.03;34.78613;996.5581;;;;
2019/04/10 09:54:21;;;;;;;14.3;12.9;;;;;;;24.08;34.73145;996.6328;;;;
2019/04/10 09:56:52;;;;;;;14.9;13.4;;;;;;;24.07;34.36328;996.6401;;;;
2019/04/10 09:59:19;;;;;;;14.3;12.8;;;;;;;24.09;34.37695;996.6077;;;;
2019/04/10 10:01:44;;;;;;;14.7;13.2;;;;;;;24.11;34.55566;996.6314;;;;
2019/04/10 10:04:18;;;;;;;14;12.6;;;;;;;24.08;34.49512;996.6328;;;;
2019/04/10 10:06:52;;;;;;;14.3;13;;;;;;;24.1;35.15918;996.5922;;;;
2019/04/10 10:09:18;;;;;;;14.8;12.9;;;;;;;24.1;34.92188;996.5977;;;;
2019/04/10 10:11:47;;;;;;;14.8;12.5;;;;;;;24.09;34.99219;996.5406;;;;
2019/04/10 10:14:12;;;;;;;13.9;12.5;;;;;;;24.04;34.73926;996.5273;;;;
2019/04/10 10:16:36;;;;;;;14;12.6;;;;;;;24.03;34.5625;996.5388;;;;
2019/04/10 10:19:08;;;;;;;13.8;12.5;;;;;;;24.03;34.23047;996.5525;;;;
2019/04/10 10:21:46;;;;;;;14.2;12.7;;;;;;;24.03;33.96973;996.5581;;;;
2019/04/10 10:24:17;;;;;;;14.2;12.8;;;;;;;24.07;34.19824;996.548;;;;
2019/04/10 10:26:46;;;;;;;13.4;12.1;;;;;;;24.06;34.48145;996.5868;;;;
2019/04/10 10:29:12;;;;;;;13.4;12.1;;;;;;;24.09;34.08105;996.5954;;;;
2019/04/10 10:31:39;;;;;;;13.9;12.4;;;;;;;24.15;33.28027;996.6094;;;;
2019/04/10 10:34:09;;;;;;;13.1;11.8;;;;;;;24.16;33.48242;996.5413;;;;
2019/04/10 10:36:41;;;;;;;12.8;11.4;;;;;;;24.11;33.43164;996.6414;;;;
2019/04/10 10:39:13;;;;;;;13.9;12.4;;;;;;;24.04;33.61523;996.6566;;;;
2019/04/10 10:41:41;;;;;;;13.3;12;;;;;;;24;33.29297;996.6608;;;;
2019/04/10 10:44:13;;;;;;;16;12.4;;;;;;;23.98;33.05469;996.5956;;;;
2019/04/10 10:46:44;;;;;;;13.1;11.9;;;;;;;23.99;33.20898;996.6312;;;;
2019/04/10 10:49:15;;;;;;;13.1;11.7;;;;;;;23.96;33.29004;996.6555;;;;
2019/04/10 10:51:47;;;;;;;12.8;11.4;;;;;;;23.92;33.09766;996.6463;;;;
2019/04/10 10:54:17;;;;;;;13.7;12;;;;;;;23.94;32.88574;996.6253;;;;
2019/04/10 10:56:47;;;;;;;12.3;11.1;;;;;;;23.9;33.0127;996.661;;;;
2019/04/10 10:59:16;;;;;;;13.5;12.1;;;;;;;23.9;33.15527;996.7103;;;;
2019/04/10 11:01:45;;;;;;;13.7;11.6;;;;;;;23.88;33.07129;996.7601;;;;
2019/04/10 11:04:15;;;;;;;12.7;11.4;;;;;;;23.9;33.00195;996.7198;;;;
2019/04/10 11:06:46;;;;;;;12.2;11;;;;;;;23.89;33.03613;996.7628;;;;
2019/04/10 11:09:17;;;;;;;12.5;11.2;;;;;;;23.89;33.01172;996.7272;;;;
2019/04/10 11:11:48;;;;;;;12.3;11;;;;;;;23.85;33.02148;996.7122;;;;
2019/04/10 11:14:23;;;;;;;12.2;11;;;;;;;23.85;33.05566;996.6589;;;;
2019/04/10 11:16:51;;;;;;;11.9;10.7;;;;;;;23.85;33.0332;996.6906;;;;
2019/04/10 11:19:23;;;;;;;12.2;11.1;;;;;;;23.83;33.31543;996.6758;;;;
2019/04/10 11:21:52;;;;;;;12.5;11.3;;;;;;;23.82;33.24316;996.7106;;;;
2019/04/10 11:24:24;;;;;;;12;10.8;;;;;;;23.78;33.34766;996.674;;;;
2019/04/10 11:26:55;;;;;;;11.6;10.5;;;;;;;23.78;33.33496;996.7014;;;;
2019/04/10 11:29:24;;;;;;;11.5;10.4;;;;;;;23.78;33.41797;996.7014;;;;
2019/04/10 11:31:55;;;;;;;11.9;10.8;;;;;;;23.78;33.31152;996.723;;;;
2019/04/10 11:34:26;;;;;;;12.4;11.2;;;;;;;23.75;33.19141;996.6708;;;;
2019/04/10 11:36:57;;;;;;;12.4;11.1;;;;;;;23.75;33.23828;996.7353;;;;
2019/04/10 11:39:27;;;;;;;11.2;10.1;;;;;;;23.75;33.19141;996.6983;;;;
2019/04/10 11:42:01;;;;;;;11.9;10.5;;;;;;;23.76;33.34473;996.6983;;;;
2019/04/10 11:44:34;;;;;;;11.1;10.1;;;;;;;23.72;33.34277;996.7654;;;;
2019/04/10 11:47:08;;;;;;;11.1;10;;;;;;;23.71;33.33008;996.7123;;;;
2019/04/10 11:49:39;;;;;;;10.7;9.7;;;;;;;23.68;33.20996;996.6997;;;;
2019/04/10 11:52:09;;;;;;;11.1;10.1;;;;;;;23.67;33.1377;996.7247;;;;
2019/04/10 11:54:39;;;;;;;11.4;10.4;;;;;;;23.66;33.125;996.6732;;;;
2019/04/10 11:57:11;;;;;;;11.7;10.6;;;;;;;23.66;33.06641;996.7184;;;;
2019/04/10 11:59:46;;;;;;;11.3;10.3;;;;;;;23.66;33.05371;996.7242;;;;
2019/04/10 12:02:12;;;;;;;11.5;10.4;;;;;;;23.65;33.00684;996.7805;;;;
2019/04/10 12:04:45;;;;;;;11.8;10.6;;;;;;;23.65;33.40918;996.7475;;;;
2019/04/10 12:07:14;;;;;;;10.8;9.3;;;;;;;23.68;33.38672;996.7367;;;;
2019/04/10 12:09:45;;;;;;;11.4;10.2;;;;;;;23.67;33.44531;996.6855;;;;
2019/04/10 12:12:17;;;;;;;10.8;9.7;;;;;;;23.66;33.37305;996.6969;;;;
2019/04/10 12:14:47;;;;;;;10.5;9.5;;;;;;;23.63;33.4541;996.8114;;;;
2019/04/10 12:17:19;;;;;;;10.9;9.8;;;;;;;23.63;33.40625;996.8251;;;;
2019/04/10 12:19:49;;;;;;;10.6;9.5;;;;;;;23.63;33.33594;996.7703;;;;
2019/04/10 12:22:22;;;;;;;10.8;9.8;;;;;;;23.65;33.18359;996.8178;;;;
2019/04/10 12:24:49;;;;;;;10.9;9.8;;;;;;;23.65;33.2666;996.7983;;;;
2019/04/10 12:27:21;;;;;;;11.6;10.5;;;;;;;23.65;33.01855;996.7886;;;;
2019/04/10 12:29:52;;;;;;;10.6;9.6;;;;;;;23.66;33.06641;996.8553;;;;
2019/04/10 12:32:21;;;;;;;11;10;;;;;;;23.65;32.94727;996.8589;;;;
2019/04/10 12:34:52;;;;;;;10.3;9.3;;;;;;;23.66;33.07715;996.8886;;;;
2019/04/10 12:37:21;;;;;;;10.1;9.1;;;;;;;23.64;33.05371;996.8644;;;;
2019/04/10 12:39:54;;;;;;;12;10.8;;;;;;;23.65;32.99414;996.8452;;;;
2019/04/10 12:42:24;;;;;;;11.4;10.1;;;;;;;23.64;33.08887;996.837;;;;
2019/04/10 12:44:54;;;;;;;12.3;11.1;;;;;;;23.62;33.13379;996.838;;;;
2019/04/10 12:47:27;;;;;;;11.4;10.3;;;;;;;23.61;33.18066;996.8672;;;;
2019/04/10 12:49:56;;;;;;;12;10.9;;;;;;;23.6;33.21582;996.9333;;;;
2019/04/10 12:52:27;;;;;;;11.4;10.3;;;;;;;23.64;33.18262;996.8837;;;;
2019/04/10 12:54:58;;;;;;;11.7;10.6;;;;;;;23.64;33.21777;996.9014;;;;
2019/04/10 12:57:29;;;;;;;11.8;10.6;;;;;;;23.63;33.22949;996.8799;;;;
2019/04/10 12:59:59;;;;;;;11.4;10.4;;;;;;;23.65;33.24316;996.8627;;;;
2019/04/10 13:02:30;;;;;;;11.3;10.1;;;;;;;23.67;33.24414;996.9028;;;;
2019/04/10 13:05:01;;;;;;;11.2;10.1;;;;;;;23.67;33.32715;996.8676;;;;
2019/04/10 13:07:38;;;;;;;10.9;9.8;;;;;;;23.65;33.33789;996.9585;;;;
2019/04/10 13:10:12;;;;;;;11;9.9;;;;;;;23.65;33.36035;996.8862;;;;
2019/04/10 13:12:43;;;;;;;12.5;9.9;;;;;;;23.65;33.39648;996.8727;;;;
2019/04/10 13:15:13;;;;;;;11.7;10.1;;;;;;;23.64;33.40723;996.8837;;;;
2019/04/10 13:17:45;;;;;;;11;9.9;;;;;;;23.64;33.43066;996.8837;;;;
2019/04/10 13:20:14;;;;;;;11;9.9;;;;;;;23.64;33.43164;996.8508;;;;
2019/04/10 13:22:47;;;;;;;10.9;9.9;;;;;;;23.64;33.4668;996.9192;;;;
2019/04/10 13:25:17;;;;;;;10.2;9.3;;;;;;;23.61;33.48828;996.9023;;;;
2019/04/10 13:27:45;;;;;;;10.6;9.6;;;;;;;23.59;33.52246;996.9115;;;;
2019/04/10 13:30:17;;;;;;;10.8;9.8;;;;;;;23.57;33.59082;996.8401;;;;
2019/04/10 13:32:47;;;;;;;11.1;10;;;;;;;23.58;33.54492;996.7781;;;;
2019/04/10 13:35:18;;;;;;;10.3;9.4;;;;;;;23.57;33.55664;996.8658;;;;
2019/04/10 13:37:49;;;;;;;11;9.9;;;;;;;23.57;33.55664;996.8754;;;;
2019/04/10 13:40:19;;;;;;;10.7;9.6;;;;;;;23.57;33.49707;996.9302;;;;
2019/04/10 13:42:49;;;;;;;11.2;10.1;;;;;;;23.56;33.38965;996.9238;;;;
2019/04/10 13:45:20;;;;;;;11.5;10.4;;;;;;;23.58;33.20215;996.952;;;;
2019/04/10 13:47:52;;;;;;;11.8;10.6;;;;;;;23.54;33.12891;996.9547;;;;
2019/04/10 13:50:22;;;;;;;12.2;10.9;;;;;;;23.56;33.12891;996.9102;;;;
2019/04/10 13:52:53;;;;;;;11.2;10.1;;;;;;;23.58;33.04785;996.9288;;;;
2019/04/10 13:55:25;;;;;;;10.8;9.7;;;;;;;23.59;32.87207;996.9758;;;;
2019/04/10 13:57:55;;;;;;;10.9;9.6;;;;;;;23.59;32.87109;996.9269;;;;
2019/04/10 14:00:33;;;;;;;11;10;;;;;;;23.59;32.84863;996.9115;;;;
2019/04/10 14:02:58;;;;;;;11.8;9.7;;;;;;;23.6;32.77832;996.9511;;;;
2019/04/10 14:05:33;;;;;;;11.8;10;;;;;;;23.59;32.75391;996.9073;;;;
2019/04/10 14:08:04;;;;;;;10.7;9.7;;;;;;;23.59;32.73047;996.9447;;;;
2019/04/10 14:10:34;;;;;;;11;9.9;;;;;;;23.58;32.63477;996.9736;;;;
2019/04/10 14:13:04;;;;;;;10.7;9.6;;;;;;;23.55;32.12402;997.0036;;;;
2019/04/10 14:15:35;;;;;;;10.6;9.6;;;;;;;23.53;31.98047;996.9442;;;;
2019/04/10 14:18:06;;;;;;;11;9.5;;;;;;;23.55;32.09961;996.916;;;;
2019/04/10 14:20:37;;;;;;;10.7;9.6;;;;;;;23.55;32.04102;996.9625;;;;
2019/04/10 14:23:51;;;;;;;11.2;9.7;;;;;;;23.54;31.79297;996.9095;;;;